THA199 VHHH-ROAH
Flight info
| Callsign | THA199 |
|---|---|
| Flight time | 2h 6m |
| Altitude | 37000 |
| Route | DALOL1X/07R DALOL V631 ENVAR M750 KUDOS R595 MJC Y57 VELNO |
| Aircraft | A346/H-SDE2E3FGHIJ3J4J5M1RWXY/LB1D1 |
Departure
| Time | 2026-05-07 14:23 |
|---|---|
| Airport | Hong Kong International Airport (VHHH) |
Arrival
| Time | 2026-05-07 16:29 |
|---|---|
| Airport | Naha International Airport (ROAH) |
| Time | Latitude | Longitude | Altitude | Speed | Heading |
|---|---|---|---|---|---|
| 2026-05-07 14:02 | 22.31076 | 113.92556 | 42 ft | 0 kts | 112° |
| 2026-05-07 14:10 | 22.31077 | 113.92556 | 42 ft | 0 kts | 112° |
| 2026-05-07 14:10 | 22.31082 | 113.92542 | 42 ft | 2 kts | 112° |
| 2026-05-07 14:10 | 22.31088 | 113.92527 | 42 ft | 2 kts | 124° |
| 2026-05-07 14:11 | 22.31098 | 113.92515 | 42 ft | 2 kts | 138° |
| 2026-05-07 14:11 | 22.31110 | 113.92506 | 42 ft | 2 kts | 150° |
| 2026-05-07 14:11 | 22.31123 | 113.92499 | 42 ft | 2 kts | 162° |
| 2026-05-07 14:11 | 22.31138 | 113.92495 | 42 ft | 2 kts | 174° |
| 2026-05-07 14:12 | 22.31152 | 113.92494 | 42 ft | 2 kts | 186° |
| 2026-05-07 14:12 | 22.31167 | 113.92497 | 42 ft | 2 kts | 198° |
| 2026-05-07 14:12 | 22.31176 | 113.92501 | 42 ft | 0 kts | 206° |
| 2026-05-07 14:12 | 22.31178 | 113.92503 | 42 ft | 0 kts | 206° |
| 2026-05-07 14:14 | 22.31176 | 113.92501 | 42 ft | 1 kts | 206° |
| 2026-05-07 14:14 | 22.31130 | 113.92480 | 42 ft | 12 kts | 202° |
| 2026-05-07 14:14 | 22.31020 | 113.92423 | 42 ft | 22 kts | 206° |
| 2026-05-07 14:15 | 22.30878 | 113.92348 | 42 ft | 21 kts | 205° |
| 2026-05-07 14:15 | 22.30738 | 113.92351 | 42 ft | 22 kts | 162° |
| 2026-05-07 14:15 | 22.30674 | 113.92361 | 42 ft | 3 kts | 206° |
| 2026-05-07 14:15 | 22.30626 | 113.92326 | 42 ft | 13 kts | 231° |
| 2026-05-07 14:16 | 22.30613 | 113.92204 | 42 ft | 20 kts | 302° |
| 2026-05-07 14:16 | 22.30621 | 113.92033 | 42 ft | 27 kts | 252° |
| 2026-05-07 14:16 | 22.30548 | 113.91811 | 42 ft | 34 kts | 250° |
| 2026-05-07 14:16 | 22.30462 | 113.91541 | 42 ft | 41 kts | 251° |
| 2026-05-07 14:17 | 22.30368 | 113.91250 | 42 ft | 39 kts | 250° |
| 2026-05-07 14:17 | 22.30272 | 113.90951 | 42 ft | 45 kts | 251° |
| 2026-05-07 14:17 | 22.30183 | 113.90675 | 42 ft | 31 kts | 250° |
| 2026-05-07 14:17 | 22.30103 | 113.90431 | 42 ft | 37 kts | 251° |
| 2026-05-07 14:18 | 22.30020 | 113.90172 | 42 ft | 26 kts | 251° |
| 2026-05-07 14:18 | 22.29971 | 113.90018 | 42 ft | 9 kts | 251° |
| 2026-05-07 14:18 | 22.29968 | 113.90009 | 42 ft | 0 kts | 251° |
| 2026-05-07 14:19 | 22.29964 | 113.89998 | 42 ft | 6 kts | 251° |
| 2026-05-07 14:19 | 22.29937 | 113.89912 | 42 ft | 11 kts | 251° |
| 2026-05-07 14:19 | 22.29877 | 113.89835 | 42 ft | 9 kts | 176° |
| 2026-05-07 14:19 | 22.29805 | 113.89865 | 42 ft | 14 kts | 157° |
| 2026-05-07 14:20 | 22.29697 | 113.89906 | 42 ft | 17 kts | 159° |
| 2026-05-07 14:20 | 22.29676 | 113.89975 | 42 ft | 13 kts | 67° |
| 2026-05-07 14:20 | 22.29694 | 113.90027 | 42 ft | 1 kts | 70° |
| 2026-05-07 14:20 | 22.29695 | 113.90028 | 42 ft | 0 kts | 70° |
| 2026-05-07 14:22 | 22.29713 | 113.90083 | 42 ft | 38 kts | 70° |
| 2026-05-07 14:22 | 22.29905 | 113.90694 | 42 ft | 127 kts | 71° |
| 2026-05-07 14:22 | 22.30268 | 113.91809 | 101 ft | 182 kts | 71° |
| 2026-05-07 14:23 | 22.30697 | 113.93145 | 822 ft | 192 kts | 71° |
| 2026-05-07 14:23 | 22.31133 | 113.94498 | 1539 ft | 197 kts | 71° |
| 2026-05-07 14:23 | 22.31601 | 113.95939 | 2063 ft | 213 kts | 71° |
| 2026-05-07 14:23 | 22.32096 | 113.97471 | 2758 ft | 219 kts | 71° |
| 2026-05-07 14:24 | 22.32597 | 113.99024 | 3524 ft | 221 kts | 71° |
| 2026-05-07 14:24 | 22.33102 | 114.00593 | 4270 ft | 223 kts | 71° |
| 2026-05-07 14:24 | 22.33609 | 114.02170 | 4991 ft | 225 kts | 72° |
| 2026-05-07 14:24 | 22.33846 | 114.03818 | 5683 ft | 227 kts | 91° |
| 2026-05-07 14:25 | 22.33467 | 114.05463 | 6288 ft | 234 kts | 120° |
| 2026-05-07 14:25 | 22.32293 | 114.06754 | 6704 ft | 254 kts | 142° |
| 2026-05-07 14:25 | 22.30821 | 114.07923 | 7227 ft | 272 kts | 144° |
| 2026-05-07 14:25 | 22.29268 | 114.09126 | 7969 ft | 281 kts | 144° |
| 2026-05-07 14:26 | 22.27686 | 114.10360 | 8890 ft | 284 kts | 144° |
| 2026-05-07 14:26 | 22.26101 | 114.11606 | 9785 ft | 287 kts | 143° |
| 2026-05-07 14:26 | 22.24475 | 114.12891 | 10623 ft | 293 kts | 143° |
| 2026-05-07 14:26 | 22.22789 | 114.14229 | 11152 ft | 310 kts | 143° |
| 2026-05-07 14:27 | 22.21018 | 114.15636 | 11606 ft | 329 kts | 143° |
| 2026-05-07 14:27 | 22.19121 | 114.17144 | 12055 ft | 348 kts | 143° |
| 2026-05-07 14:27 | 22.17105 | 114.18748 | 12485 ft | 368 kts | 143° |
| 2026-05-07 14:27 | 22.15005 | 114.20417 | 12997 ft | 384 kts | 143° |
| 2026-05-07 14:28 | 22.12856 | 114.22124 | 13821 ft | 390 kts | 143° |
| 2026-05-07 14:28 | 22.10675 | 114.23858 | 14722 ft | 393 kts | 143° |
| 2026-05-07 14:28 | 22.08472 | 114.25608 | 15559 ft | 398 kts | 143° |
| 2026-05-07 14:28 | 22.06241 | 114.27377 | 16360 ft | 403 kts | 143° |
| 2026-05-07 14:29 | 22.03991 | 114.29154 | 17144 ft | 407 kts | 143° |
| 2026-05-07 14:29 | 22.01677 | 114.30978 | 17922 ft | 412 kts | 143° |
| 2026-05-07 14:29 | 21.99357 | 114.32806 | 18675 ft | 417 kts | 143° |
| 2026-05-07 14:29 | 21.97023 | 114.34645 | 19407 ft | 421 kts | 143° |
| 2026-05-07 14:30 | 21.94656 | 114.36510 | 20125 ft | 426 kts | 143° |
| 2026-05-07 14:30 | 21.92263 | 114.38393 | 20826 ft | 430 kts | 143° |
| 2026-05-07 14:30 | 21.89849 | 114.40292 | 21508 ft | 435 kts | 143° |
| 2026-05-07 14:30 | 21.87442 | 114.42270 | 22167 ft | 439 kts | 137° |
| 2026-05-07 14:31 | 21.85409 | 114.44735 | 22807 ft | 443 kts | 124° |
| 2026-05-07 14:31 | 21.83949 | 114.47632 | 23433 ft | 447 kts | 111° |
| 2026-05-07 14:31 | 21.83008 | 114.50826 | 24054 ft | 450 kts | 105° |
| 2026-05-07 14:31 | 21.82184 | 114.54065 | 24640 ft | 455 kts | 105° |
| 2026-05-07 14:32 | 21.81366 | 114.57340 | 25201 ft | 459 kts | 105° |
| 2026-05-07 14:32 | 21.80521 | 114.60692 | 25770 ft | 463 kts | 105° |
| 2026-05-07 14:32 | 21.79669 | 114.64037 | 26324 ft | 467 kts | 105° |
| 2026-05-07 14:32 | 21.78808 | 114.67390 | 26860 ft | 471 kts | 105° |
| 2026-05-07 14:33 | 21.77932 | 114.70789 | 27442 ft | 473 kts | 105° |
| 2026-05-07 14:33 | 21.77058 | 114.74167 | 28190 ft | 471 kts | 105° |
| 2026-05-07 14:33 | 21.76201 | 114.77528 | 28938 ft | 468 kts | 104° |
| 2026-05-07 14:33 | 21.75481 | 114.80911 | 29608 ft | 466 kts | 101° |
| 2026-05-07 14:34 | 21.74932 | 114.84332 | 30221 ft | 465 kts | 98° |
| 2026-05-07 14:34 | 21.74558 | 114.87804 | 30803 ft | 464 kts | 95° |
| 2026-05-07 14:34 | 21.74367 | 114.91242 | 31356 ft | 463 kts | 91° |
| 2026-05-07 14:34 | 21.74331 | 114.94686 | 31898 ft | 462 kts | 90° |
| 2026-05-07 14:35 | 21.74332 | 114.98106 | 32421 ft | 461 kts | 90° |
| 2026-05-07 14:35 | 21.74339 | 115.01582 | 32934 ft | 460 kts | 90° |
| 2026-05-07 14:35 | 21.74343 | 115.04997 | 33420 ft | 459 kts | 90° |
| 2026-05-07 14:35 | 21.74345 | 115.08382 | 33884 ft | 458 kts | 90° |
| 2026-05-07 14:36 | 21.74344 | 115.11816 | 34338 ft | 457 kts | 90° |
| 2026-05-07 14:36 | 21.74341 | 115.15241 | 34773 ft | 456 kts | 90° |
| 2026-05-07 14:36 | 21.74338 | 115.18632 | 35186 ft | 456 kts | 90° |
| 2026-05-07 14:36 | 21.74334 | 115.21995 | 35575 ft | 455 kts | 90° |
| 2026-05-07 14:37 | 21.74328 | 115.25378 | 35944 ft | 454 kts | 90° |
| 2026-05-07 14:37 | 21.74314 | 115.32156 | 36612 ft | 453 kts | 90° |
| 2026-05-07 14:37 | 21.74306 | 115.35516 | 36890 ft | 453 kts | 90° |
| 2026-05-07 14:38 | 21.74288 | 115.42356 | 36994 ft | 462 kts | 90° |
| 2026-05-07 14:38 | 21.74266 | 115.49268 | 36996 ft | 465 kts | 90° |
| 2026-05-07 14:39 | 21.74242 | 115.56245 | 36996 ft | 465 kts | 90° |
| 2026-05-07 14:39 | 21.74217 | 115.63144 | 36996 ft | 465 kts | 90° |
| 2026-05-07 14:40 | 21.74191 | 115.70114 | 36996 ft | 465 kts | 90° |
| 2026-05-07 14:40 | 21.74162 | 115.77057 | 36996 ft | 465 kts | 90° |
| 2026-05-07 14:41 | 21.74130 | 115.84010 | 36996 ft | 465 kts | 90° |
| 2026-05-07 14:41 | 21.74094 | 115.90955 | 36996 ft | 465 kts | 90° |
| 2026-05-07 14:42 | 21.74056 | 115.97877 | 36996 ft | 465 kts | 90° |
| 2026-05-07 14:42 | 21.74014 | 116.04811 | 36996 ft | 465 kts | 90° |
| 2026-05-07 14:43 | 21.73970 | 116.11758 | 36996 ft | 465 kts | 90° |
| 2026-05-07 14:43 | 21.73923 | 116.18675 | 36996 ft | 465 kts | 90° |
| 2026-05-07 14:44 | 21.73873 | 116.25612 | 36996 ft | 465 kts | 90° |
| 2026-05-07 14:44 | 21.73820 | 116.32577 | 36996 ft | 465 kts | 90° |
| 2026-05-07 14:45 | 21.73764 | 116.39532 | 36996 ft | 465 kts | 90° |
| 2026-05-07 14:45 | 21.73705 | 116.46435 | 36996 ft | 465 kts | 90° |
| 2026-05-07 14:46 | 21.73644 | 116.53401 | 36996 ft | 465 kts | 90° |
| 2026-05-07 14:46 | 21.73580 | 116.60310 | 36996 ft | 465 kts | 90° |
| 2026-05-07 14:47 | 21.73512 | 116.67291 | 36996 ft | 465 kts | 90° |
| 2026-05-07 14:47 | 21.73811 | 116.74193 | 36997 ft | 465 kts | 84° |
| 2026-05-07 14:48 | 21.74882 | 116.81039 | 36997 ft | 465 kts | 77° |
| 2026-05-07 14:48 | 21.76716 | 116.87682 | 36997 ft | 465 kts | 70° |
| 2026-05-07 14:49 | 21.79039 | 116.94151 | 36996 ft | 465 kts | 69° |
| 2026-05-07 14:49 | 21.81399 | 117.00632 | 36996 ft | 465 kts | 69° |
| 2026-05-07 14:50 | 21.83736 | 117.07080 | 36996 ft | 465 kts | 69° |
| 2026-05-07 14:50 | 21.86079 | 117.13570 | 36996 ft | 465 kts | 69° |
| 2026-05-07 14:51 | 21.88403 | 117.20017 | 36996 ft | 465 kts | 69° |
| 2026-05-07 14:51 | 21.90737 | 117.26502 | 36996 ft | 465 kts | 69° |
| 2026-05-07 14:52 | 21.93073 | 117.33003 | 36996 ft | 465 kts | 69° |
| 2026-05-07 14:52 | 21.95395 | 117.39476 | 36996 ft | 465 kts | 69° |
| 2026-05-07 14:53 | 21.97734 | 117.45956 | 36996 ft | 465 kts | 67° |
| 2026-05-07 14:53 | 22.00512 | 117.52234 | 36996 ft | 465 kts | 61° |
| 2026-05-07 14:54 | 22.03797 | 117.58179 | 36996 ft | 465 kts | 58° |
| 2026-05-07 14:54 | 22.07188 | 117.64126 | 36996 ft | 465 kts | 58° |
| 2026-05-07 14:55 | 22.10544 | 117.70047 | 36996 ft | 465 kts | 58° |
| 2026-05-07 14:55 | 22.13921 | 117.75975 | 36996 ft | 465 kts | 58° |
| 2026-05-07 14:56 | 22.17285 | 117.81898 | 36996 ft | 465 kts | 58° |
| 2026-05-07 14:56 | 22.20644 | 117.87839 | 36996 ft | 465 kts | 58° |
| 2026-05-07 14:57 | 22.24003 | 117.93793 | 36996 ft | 465 kts | 58° |
| 2026-05-07 14:57 | 22.27366 | 117.99761 | 36996 ft | 465 kts | 58° |
| 2026-05-07 14:58 | 22.30782 | 118.05658 | 36996 ft | 465 kts | 57° |
| 2026-05-07 14:58 | 22.34226 | 118.11532 | 36996 ft | 465 kts | 58° |
| 2026-05-07 14:59 | 22.37674 | 118.17448 | 36996 ft | 465 kts | 58° |
| 2026-05-07 14:59 | 22.41099 | 118.23353 | 36996 ft | 465 kts | 58° |
| 2026-05-07 15:00 | 22.44453 | 118.29263 | 36996 ft | 465 kts | 58° |
| 2026-05-07 15:00 | 22.47835 | 118.35248 | 36996 ft | 465 kts | 58° |
| 2026-05-07 15:01 | 22.51180 | 118.41170 | 36996 ft | 465 kts | 58° |
| 2026-05-07 15:01 | 22.54553 | 118.47146 | 36996 ft | 465 kts | 58° |
| 2026-05-07 15:02 | 22.57920 | 118.53100 | 36996 ft | 465 kts | 58° |
| 2026-05-07 15:02 | 22.61317 | 118.59043 | 36996 ft | 465 kts | 58° |
| 2026-05-07 15:03 | 22.64688 | 118.64949 | 36996 ft | 465 kts | 58° |
| 2026-05-07 15:03 | 22.68072 | 118.70918 | 36996 ft | 465 kts | 58° |
| 2026-05-07 15:04 | 22.71453 | 118.76890 | 36996 ft | 465 kts | 58° |
| 2026-05-07 15:04 | 22.74827 | 118.82843 | 36996 ft | 465 kts | 58° |
| 2026-05-07 15:05 | 22.78201 | 118.88799 | 36996 ft | 465 kts | 58° |
| 2026-05-07 15:05 | 22.81558 | 118.94729 | 36996 ft | 465 kts | 58° |
| 2026-05-07 15:06 | 22.84928 | 119.00689 | 36996 ft | 465 kts | 58° |
| 2026-05-07 15:06 | 22.88309 | 119.06675 | 36996 ft | 465 kts | 58° |
| 2026-05-07 15:07 | 22.91689 | 119.12666 | 36996 ft | 465 kts | 58° |
| 2026-05-07 15:07 | 22.95035 | 119.18604 | 36996 ft | 465 kts | 58° |
| 2026-05-07 15:08 | 22.98405 | 119.24592 | 36996 ft | 465 kts | 58° |
| 2026-05-07 15:08 | 23.01777 | 119.30590 | 36996 ft | 465 kts | 58° |
| 2026-05-07 15:09 | 23.05131 | 119.36564 | 36996 ft | 465 kts | 58° |
| 2026-05-07 15:09 | 23.08470 | 119.42517 | 36996 ft | 465 kts | 58° |
| 2026-05-07 15:10 | 23.11833 | 119.48505 | 36996 ft | 465 kts | 58° |
| 2026-05-07 15:10 | 23.15207 | 119.54498 | 36997 ft | 465 kts | 58° |
| 2026-05-07 15:11 | 23.18559 | 119.60490 | 36996 ft | 465 kts | 58° |
| 2026-05-07 15:11 | 23.21925 | 119.66500 | 36996 ft | 465 kts | 59° |
| 2026-05-07 15:12 | 23.25264 | 119.72508 | 36996 ft | 465 kts | 59° |
| 2026-05-07 15:12 | 23.28593 | 119.78500 | 36996 ft | 465 kts | 59° |
| 2026-05-07 15:13 | 23.31936 | 119.84508 | 36996 ft | 465 kts | 59° |
| 2026-05-07 15:13 | 23.35503 | 119.90318 | 36996 ft | 465 kts | 53° |
| 2026-05-07 15:14 | 23.39653 | 119.95706 | 36996 ft | 465 kts | 46° |
| 2026-05-07 15:14 | 23.44245 | 120.00610 | 36996 ft | 465 kts | 43° |
| 2026-05-07 15:15 | 23.48952 | 120.05441 | 36996 ft | 465 kts | 43° |
| 2026-05-07 15:15 | 23.53630 | 120.10252 | 36996 ft | 465 kts | 43° |
| 2026-05-07 15:16 | 23.58335 | 120.15104 | 36996 ft | 465 kts | 43° |
| 2026-05-07 15:16 | 23.63009 | 120.19930 | 36996 ft | 465 kts | 43° |
| 2026-05-07 15:17 | 23.67682 | 120.24762 | 36996 ft | 465 kts | 43° |
| 2026-05-07 15:17 | 23.72371 | 120.29617 | 36996 ft | 465 kts | 43° |
| 2026-05-07 15:18 | 23.77048 | 120.34463 | 36996 ft | 465 kts | 43° |
| 2026-05-07 15:18 | 23.81714 | 120.39306 | 36996 ft | 465 kts | 43° |
| 2026-05-07 15:19 | 23.86409 | 120.44185 | 36996 ft | 465 kts | 43° |
| 2026-05-07 15:19 | 23.91074 | 120.49036 | 36996 ft | 465 kts | 43° |
| 2026-05-07 15:20 | 23.95730 | 120.53926 | 36996 ft | 465 kts | 44° |
| 2026-05-07 15:20 | 24.00349 | 120.58798 | 36996 ft | 465 kts | 44° |
| 2026-05-07 15:21 | 24.05004 | 120.63715 | 36996 ft | 465 kts | 44° |
| 2026-05-07 15:21 | 24.09634 | 120.68626 | 36996 ft | 465 kts | 44° |
| 2026-05-07 15:22 | 24.14271 | 120.73532 | 36996 ft | 465 kts | 44° |
| 2026-05-07 15:22 | 24.18910 | 120.78433 | 36996 ft | 465 kts | 44° |
| 2026-05-07 15:23 | 24.23558 | 120.83359 | 36996 ft | 465 kts | 44° |
| 2026-05-07 15:23 | 24.28184 | 120.88271 | 36996 ft | 465 kts | 44° |
| 2026-05-07 15:24 | 24.32810 | 120.93190 | 36996 ft | 465 kts | 44° |
| 2026-05-07 15:24 | 24.37501 | 120.98184 | 36997 ft | 477 kts | 44° |
| 2026-05-07 15:25 | 24.42161 | 121.03458 | 36996 ft | 487 kts | 49° |
| 2026-05-07 15:25 | 24.46469 | 121.09218 | 36996 ft | 488 kts | 51° |
| 2026-05-07 15:26 | 24.50676 | 121.15027 | 36996 ft | 488 kts | 51° |
| 2026-05-07 15:26 | 24.54869 | 121.20825 | 36996 ft | 488 kts | 51° |
| 2026-05-07 15:27 | 24.59095 | 121.26667 | 36996 ft | 488 kts | 51° |
| 2026-05-07 15:27 | 24.63293 | 121.32476 | 36996 ft | 488 kts | 51° |
| 2026-05-07 15:28 | 24.67485 | 121.38283 | 36996 ft | 488 kts | 51° |
| 2026-05-07 15:28 | 24.71701 | 121.44130 | 36996 ft | 488 kts | 51° |
| 2026-05-07 15:29 | 24.75917 | 121.49986 | 36996 ft | 488 kts | 51° |
| 2026-05-07 15:29 | 24.80093 | 121.55796 | 36996 ft | 488 kts | 51° |
| 2026-05-07 15:30 | 24.84294 | 121.61650 | 36996 ft | 488 kts | 51° |
| 2026-05-07 15:30 | 24.88474 | 121.67487 | 36996 ft | 488 kts | 52° |
| 2026-05-07 15:31 | 24.92832 | 121.73220 | 36997 ft | 488 kts | 49° |
| 2026-05-07 15:31 | 24.97263 | 121.78852 | 36996 ft | 488 kts | 49° |
| 2026-05-07 15:32 | 25.01696 | 121.84492 | 36996 ft | 488 kts | 49° |
| 2026-05-07 15:32 | 25.06105 | 121.90161 | 36995 ft | 488 kts | 52° |
| 2026-05-07 15:33 | 25.09635 | 121.96535 | 36994 ft | 488 kts | 66° |
| 2026-05-07 15:33 | 25.11690 | 122.03647 | 36997 ft | 488 kts | 79° |
| 2026-05-07 15:34 | 25.12155 | 122.11038 | 36998 ft | 488 kts | 93° |
| 2026-05-07 15:34 | 25.11561 | 122.18471 | 36997 ft | 488 kts | 96° |
| 2026-05-07 15:35 | 25.10890 | 122.25916 | 36996 ft | 488 kts | 95° |
| 2026-05-07 15:35 | 25.10225 | 122.33351 | 36997 ft | 488 kts | 96° |
| 2026-05-07 15:36 | 25.09510 | 122.40796 | 36996 ft | 488 kts | 96° |
| 2026-05-07 15:36 | 25.08799 | 122.48208 | 36997 ft | 488 kts | 96° |
| 2026-05-07 15:37 | 25.08079 | 122.55650 | 36997 ft | 488 kts | 96° |
| 2026-05-07 15:37 | 25.07359 | 122.63036 | 36997 ft | 488 kts | 96° |
| 2026-05-07 15:38 | 25.06630 | 122.70478 | 36996 ft | 488 kts | 96° |
| 2026-05-07 15:38 | 25.05900 | 122.77908 | 36996 ft | 488 kts | 96° |
| 2026-05-07 15:39 | 25.05164 | 122.85323 | 36996 ft | 488 kts | 96° |
| 2026-05-07 15:39 | 25.04417 | 122.92758 | 36996 ft | 488 kts | 96° |
| 2026-05-07 15:40 | 25.03673 | 123.00159 | 36996 ft | 488 kts | 96° |
| 2026-05-07 15:40 | 25.02934 | 123.07598 | 36996 ft | 488 kts | 96° |
| 2026-05-07 15:41 | 25.02189 | 123.14988 | 36996 ft | 488 kts | 96° |
| 2026-05-07 15:41 | 25.01443 | 123.22424 | 36996 ft | 488 kts | 96° |
| 2026-05-07 15:42 | 25.00703 | 123.29826 | 36996 ft | 488 kts | 96° |
| 2026-05-07 15:42 | 24.99950 | 123.37239 | 36997 ft | 488 kts | 96° |
| 2026-05-07 15:43 | 24.99189 | 123.44657 | 36997 ft | 488 kts | 96° |
| 2026-05-07 15:43 | 24.98420 | 123.52089 | 36997 ft | 488 kts | 96° |
| 2026-05-07 15:44 | 24.97654 | 123.59466 | 36997 ft | 488 kts | 96° |
| 2026-05-07 15:44 | 24.96876 | 123.66913 | 36997 ft | 488 kts | 97° |
| 2026-05-07 15:45 | 24.96101 | 123.74305 | 36996 ft | 488 kts | 97° |
| 2026-05-07 15:45 | 24.95316 | 123.81739 | 36996 ft | 488 kts | 97° |
| 2026-05-07 15:46 | 24.94128 | 123.92855 | 36996 ft | 488 kts | 97° |
| 2026-05-07 15:47 | 24.93335 | 124.00257 | 36996 ft | 488 kts | 97° |
| 2026-05-07 15:47 | 24.92499 | 124.07657 | 36996 ft | 488 kts | 97° |
| 2026-05-07 15:48 | 24.91636 | 124.15057 | 36996 ft | 488 kts | 97° |
| 2026-05-07 15:48 | 24.90773 | 124.22403 | 36996 ft | 488 kts | 97° |
| 2026-05-07 15:49 | 24.89899 | 124.29802 | 36997 ft | 488 kts | 97° |
| 2026-05-07 15:49 | 24.88990 | 124.37228 | 36996 ft | 488 kts | 97° |
| 2026-05-07 15:50 | 24.88095 | 124.44591 | 36996 ft | 488 kts | 97° |
| 2026-05-07 15:50 | 24.87205 | 124.51992 | 36996 ft | 488 kts | 97° |
| 2026-05-07 15:51 | 24.86315 | 124.59396 | 36996 ft | 488 kts | 97° |
| 2026-05-07 15:51 | 24.85426 | 124.66778 | 36996 ft | 488 kts | 97° |
| 2026-05-07 15:52 | 24.84538 | 124.74145 | 36996 ft | 488 kts | 97° |
| 2026-05-07 15:52 | 24.83637 | 124.81551 | 36996 ft | 488 kts | 98° |
| 2026-05-07 15:53 | 24.82739 | 124.88911 | 36996 ft | 488 kts | 97° |
| 2026-05-07 15:53 | 24.81837 | 124.96296 | 36996 ft | 488 kts | 97° |
| 2026-05-07 15:54 | 24.80924 | 125.03723 | 36996 ft | 488 kts | 98° |
| 2026-05-07 15:54 | 24.80010 | 125.11102 | 36996 ft | 488 kts | 98° |
| 2026-05-07 15:55 | 24.79146 | 125.18515 | 36995 ft | 488 kts | 94° |
| 2026-05-07 15:55 | 24.79308 | 125.25952 | 36997 ft | 488 kts | 82° |
| 2026-05-07 15:56 | 24.80855 | 125.33191 | 36997 ft | 488 kts | 70° |
| 2026-05-07 15:56 | 24.83723 | 125.39931 | 36997 ft | 488 kts | 59° |
| 2026-05-07 15:57 | 24.87285 | 125.46245 | 36996 ft | 488 kts | 57° |
| 2026-05-07 15:57 | 24.90900 | 125.52559 | 36996 ft | 488 kts | 57° |
| 2026-05-07 15:58 | 24.94491 | 125.58876 | 36997 ft | 489 kts | 58° |
| 2026-05-07 15:58 | 24.98078 | 125.65221 | 36859 ft | 488 kts | 58° |
| 2026-05-07 15:58 | 24.99861 | 125.68390 | 36304 ft | 484 kts | 58° |
| 2026-05-07 15:59 | 25.01597 | 125.71486 | 35970 ft | 471 kts | 58° |
| 2026-05-07 15:59 | 25.03312 | 125.74544 | 35754 ft | 459 kts | 58° |
| 2026-05-07 15:59 | 25.04943 | 125.77451 | 35508 ft | 449 kts | 58° |
| 2026-05-07 15:59 | 25.06575 | 125.80357 | 35095 ft | 443 kts | 58° |
| 2026-05-07 16:00 | 25.08180 | 125.83216 | 34589 ft | 439 kts | 58° |
| 2026-05-07 16:00 | 25.09795 | 125.86092 | 34074 ft | 436 kts | 58° |
| 2026-05-07 16:00 | 25.11377 | 125.88899 | 33578 ft | 432 kts | 58° |
| 2026-05-07 16:00 | 25.12970 | 125.91712 | 33137 ft | 427 kts | 58° |
| 2026-05-07 16:01 | 25.14515 | 125.94449 | 32954 ft | 416 kts | 58° |
| 2026-05-07 16:01 | 25.16013 | 125.97109 | 32770 ft | 405 kts | 58° |
| 2026-05-07 16:01 | 25.17467 | 125.99699 | 32544 ft | 396 kts | 58° |
| 2026-05-07 16:01 | 25.18912 | 126.02278 | 32172 ft | 392 kts | 58° |
| 2026-05-07 16:02 | 25.20338 | 126.04827 | 31728 ft | 389 kts | 58° |
| 2026-05-07 16:02 | 25.21742 | 126.07337 | 31285 ft | 386 kts | 58° |
| 2026-05-07 16:02 | 25.23137 | 126.09834 | 30851 ft | 384 kts | 58° |
| 2026-05-07 16:02 | 25.24545 | 126.12354 | 30412 ft | 381 kts | 58° |
| 2026-05-07 16:03 | 25.25921 | 126.14820 | 29982 ft | 378 kts | 58° |
| 2026-05-07 16:03 | 25.27288 | 126.17270 | 29552 ft | 375 kts | 58° |
| 2026-05-07 16:03 | 25.28646 | 126.19707 | 29122 ft | 373 kts | 58° |
| 2026-05-07 16:03 | 25.29998 | 126.22131 | 28694 ft | 370 kts | 58° |
| 2026-05-07 16:04 | 25.31337 | 126.24536 | 28267 ft | 368 kts | 58° |
| 2026-05-07 16:04 | 25.32672 | 126.26936 | 27840 ft | 365 kts | 58° |
| 2026-05-07 16:04 | 25.33991 | 126.29305 | 27415 ft | 363 kts | 58° |
| 2026-05-07 16:04 | 25.35302 | 126.31663 | 26993 ft | 360 kts | 58° |
| 2026-05-07 16:05 | 25.36616 | 126.34027 | 26569 ft | 358 kts | 58° |
| 2026-05-07 16:05 | 25.37893 | 126.36327 | 26154 ft | 355 kts | 58° |
| 2026-05-07 16:05 | 25.39175 | 126.38638 | 25736 ft | 353 kts | 58° |
| 2026-05-07 16:05 | 25.40462 | 126.40958 | 25314 ft | 350 kts | 58° |
| 2026-05-07 16:06 | 25.41730 | 126.43247 | 24896 ft | 348 kts | 58° |
| 2026-05-07 16:06 | 25.42984 | 126.45512 | 24481 ft | 346 kts | 58° |
| 2026-05-07 16:06 | 25.44231 | 126.47765 | 24067 ft | 343 kts | 58° |
| 2026-05-07 16:06 | 25.45460 | 126.49986 | 23657 ft | 341 kts | 58° |
| 2026-05-07 16:07 | 25.46702 | 126.52229 | 23242 ft | 339 kts | 58° |
| 2026-05-07 16:07 | 25.47923 | 126.54435 | 22832 ft | 337 kts | 58° |
| 2026-05-07 16:07 | 25.49144 | 126.56641 | 22421 ft | 335 kts | 58° |
| 2026-05-07 16:07 | 25.50341 | 126.58812 | 22015 ft | 332 kts | 58° |
| 2026-05-07 16:08 | 25.51538 | 126.60986 | 21607 ft | 330 kts | 58° |
| 2026-05-07 16:08 | 25.52720 | 126.63134 | 21201 ft | 328 kts | 58° |
| 2026-05-07 16:08 | 25.53906 | 126.65292 | 20795 ft | 326 kts | 59° |
| 2026-05-07 16:08 | 25.55077 | 126.67437 | 20391 ft | 324 kts | 59° |
| 2026-05-07 16:09 | 25.56226 | 126.69544 | 19992 ft | 322 kts | 59° |
| 2026-05-07 16:09 | 25.57383 | 126.71664 | 19590 ft | 320 kts | 59° |
| 2026-05-07 16:09 | 25.58525 | 126.73753 | 19192 ft | 318 kts | 59° |
| 2026-05-07 16:09 | 25.59668 | 126.75843 | 18793 ft | 316 kts | 59° |
| 2026-05-07 16:10 | 25.60804 | 126.77919 | 18396 ft | 314 kts | 59° |
| 2026-05-07 16:10 | 25.61922 | 126.79964 | 18004 ft | 312 kts | 59° |
| 2026-05-07 16:10 | 25.63046 | 126.82019 | 17609 ft | 310 kts | 59° |
| 2026-05-07 16:10 | 25.64157 | 126.84053 | 17218 ft | 308 kts | 59° |
| 2026-05-07 16:11 | 25.65267 | 126.86085 | 16826 ft | 307 kts | 59° |
| 2026-05-07 16:11 | 25.66358 | 126.88082 | 16440 ft | 305 kts | 59° |
| 2026-05-07 16:11 | 25.67454 | 126.90089 | 16051 ft | 303 kts | 59° |
| 2026-05-07 16:11 | 25.68541 | 126.92079 | 15665 ft | 301 kts | 59° |
| 2026-05-07 16:12 | 25.69612 | 126.94038 | 15284 ft | 299 kts | 59° |
| 2026-05-07 16:12 | 25.70692 | 126.96014 | 14899 ft | 298 kts | 59° |
| 2026-05-07 16:12 | 25.71755 | 126.97959 | 14520 ft | 296 kts | 59° |
| 2026-05-07 16:12 | 25.72818 | 126.99909 | 14139 ft | 294 kts | 59° |
| 2026-05-07 16:13 | 25.73868 | 127.01835 | 13763 ft | 292 kts | 59° |
| 2026-05-07 16:13 | 25.74918 | 127.03763 | 13385 ft | 291 kts | 59° |
| 2026-05-07 16:13 | 25.75953 | 127.05665 | 13012 ft | 289 kts | 59° |
| 2026-05-07 16:13 | 25.76992 | 127.07575 | 12637 ft | 288 kts | 59° |
| 2026-05-07 16:14 | 25.78022 | 127.09469 | 12265 ft | 286 kts | 59° |
| 2026-05-07 16:14 | 25.79030 | 127.11324 | 11900 ft | 284 kts | 59° |
| 2026-05-07 16:14 | 25.80056 | 127.13213 | 11529 ft | 283 kts | 59° |
| 2026-05-07 16:14 | 25.81058 | 127.15057 | 11164 ft | 281 kts | 59° |
| 2026-05-07 16:15 | 25.82067 | 127.16917 | 10798 ft | 280 kts | 59° |
| 2026-05-07 16:15 | 25.83065 | 127.18757 | 10435 ft | 278 kts | 59° |
| 2026-05-07 16:15 | 25.84059 | 127.20591 | 10073 ft | 277 kts | 59° |
| 2026-05-07 16:15 | 25.85049 | 127.22418 | 9712 ft | 275 kts | 59° |
| 2026-05-07 16:16 | 25.86029 | 127.24226 | 9354 ft | 274 kts | 59° |
| 2026-05-07 16:16 | 25.87002 | 127.26022 | 8999 ft | 272 kts | 59° |
| 2026-05-07 16:16 | 25.87976 | 127.27821 | 8643 ft | 271 kts | 59° |
| 2026-05-07 16:16 | 25.88957 | 127.29578 | 8290 ft | 269 kts | 52° |
| 2026-05-07 16:17 | 25.90258 | 127.31049 | 8040 ft | 267 kts | 36° |
| 2026-05-07 16:17 | 25.91878 | 127.32078 | 8024 ft | 269 kts | 25° |
| 2026-05-07 16:17 | 25.93577 | 127.32937 | 8019 ft | 269 kts | 24° |
| 2026-05-07 16:17 | 25.95277 | 127.33772 | 8017 ft | 269 kts | 24° |
| 2026-05-07 16:18 | 25.96991 | 127.34617 | 8017 ft | 269 kts | 24° |
| 2026-05-07 16:18 | 25.98698 | 127.35466 | 8017 ft | 269 kts | 24° |
| 2026-05-07 16:18 | 26.00408 | 127.36323 | 7989 ft | 266 kts | 24° |
| 2026-05-07 16:18 | 26.02076 | 127.37161 | 7659 ft | 265 kts | 24° |
| 2026-05-07 16:19 | 26.03749 | 127.38004 | 7262 ft | 265 kts | 24° |
| 2026-05-07 16:19 | 26.05416 | 127.38845 | 6913 ft | 264 kts | 24° |
| 2026-05-07 16:19 | 26.07098 | 127.39695 | 6570 ft | 263 kts | 24° |
| 2026-05-07 16:19 | 26.08722 | 127.40516 | 6390 ft | 254 kts | 24° |
| 2026-05-07 16:20 | 26.10305 | 127.41316 | 6226 ft | 246 kts | 24° |
| 2026-05-07 16:20 | 26.11844 | 127.42091 | 6027 ft | 240 kts | 24° |
| 2026-05-07 16:20 | 26.13355 | 127.42850 | 5746 ft | 238 kts | 24° |
| 2026-05-07 16:20 | 26.14857 | 127.43606 | 5436 ft | 237 kts | 24° |
| 2026-05-07 16:21 | 26.16346 | 127.44358 | 5135 ft | 236 kts | 24° |
| 2026-05-07 16:21 | 26.17838 | 127.45113 | 4835 ft | 235 kts | 24° |
| 2026-05-07 16:21 | 26.19335 | 127.45872 | 4533 ft | 234 kts | 24° |
| 2026-05-07 16:21 | 26.20799 | 127.46614 | 4238 ft | 233 kts | 24° |
| 2026-05-07 16:22 | 26.22266 | 127.47359 | 3942 ft | 232 kts | 24° |
| 2026-05-07 16:22 | 26.23730 | 127.48102 | 3647 ft | 231 kts | 24° |
| 2026-05-07 16:22 | 26.25199 | 127.48848 | 3351 ft | 230 kts | 24° |
| 2026-05-07 16:22 | 26.26637 | 127.49578 | 3062 ft | 229 kts | 24° |
| 2026-05-07 16:23 | 26.28086 | 127.50314 | 2770 ft | 228 kts | 24° |
| 2026-05-07 16:23 | 26.29536 | 127.51050 | 2479 ft | 227 kts | 24° |
| 2026-05-07 16:23 | 26.30953 | 127.51769 | 2247 ft | 220 kts | 24° |
| 2026-05-07 16:23 | 26.32290 | 127.52447 | 2054 ft | 206 kts | 24° |
| 2026-05-07 16:24 | 26.33462 | 127.53329 | 2020 ft | 205 kts | 50° |
| 2026-05-07 16:24 | 26.34014 | 127.54787 | 2010 ft | 206 kts | 83° |
| 2026-05-07 16:24 | 26.34110 | 127.56362 | 2027 ft | 205 kts | 88° |
| 2026-05-07 16:24 | 26.34145 | 127.57952 | 2020 ft | 205 kts | 88° |
| 2026-05-07 16:25 | 26.34181 | 127.59562 | 2016 ft | 206 kts | 88° |
| 2026-05-07 16:25 | 26.34222 | 127.61136 | 2017 ft | 205 kts | 92° |
| 2026-05-07 16:25 | 26.33779 | 127.62627 | 1992 ft | 205 kts | 134° |
| 2026-05-07 16:25 | 26.32537 | 127.63317 | 2009 ft | 205 kts | 179° |
| 2026-05-07 16:26 | 26.31121 | 127.63180 | 2048 ft | 206 kts | 188° |
| 2026-05-07 16:26 | 26.29725 | 127.62997 | 1864 ft | 199 kts | 184° |
| 2026-05-07 16:26 | 26.28361 | 127.62936 | 1593 ft | 192 kts | 180° |
| 2026-05-07 16:26 | 26.27074 | 127.62963 | 1335 ft | 179 kts | 177° |
| 2026-05-07 16:27 | 26.25861 | 127.63030 | 1102 ft | 172 kts | 176° |
| 2026-05-07 16:27 | 26.24669 | 127.63094 | 881 ft | 170 kts | 177° |
| 2026-05-07 16:27 | 26.23539 | 127.63133 | 631 ft | 159 kts | 182° |
| 2026-05-07 16:27 | 26.22466 | 127.63105 | 364 ft | 150 kts | 177° |
| 2026-05-07 16:28 | 26.21433 | 127.63173 | 165 ft | 149 kts | 175° |
| 2026-05-07 16:28 | 26.20384 | 127.63229 | 56 ft | 148 kts | 177° |
| 2026-05-07 16:28 | 26.19467 | 127.63270 | 18 ft | 108 kts | 178° |
| 2026-05-07 16:28 | 26.18899 | 127.63293 | 17 ft | 56 kts | 178° |
| 2026-05-07 16:29 | 26.18629 | 127.63311 | 17 ft | 33 kts | 166° |
| 2026-05-07 16:29 | 26.18427 | 127.63413 | 17 ft | 25 kts | 147° |
| 2026-05-07 16:29 | 26.18385 | 127.63498 | 17 ft | 9 kts | 42° |
| 2026-05-07 16:29 | 26.18461 | 127.63515 | 17 ft | 19 kts | 359° |
| 2026-05-07 16:30 | 26.18647 | 127.63508 | 17 ft | 33 kts | 358° |
| 2026-05-07 16:30 | 26.18916 | 127.63495 | 17 ft | 43 kts | 357° |
| 2026-05-07 16:30 | 26.19200 | 127.63483 | 17 ft | 44 kts | 357° |
| 2026-05-07 16:30 | 26.19476 | 127.63470 | 18 ft | 39 kts | 357° |
| 2026-05-07 16:31 | 26.19760 | 127.63457 | 18 ft | 37 kts | 357° |
| 2026-05-07 16:31 | 26.20003 | 127.63445 | 18 ft | 24 kts | 357° |
| 2026-05-07 16:31 | 26.20158 | 127.63442 | 18 ft | 19 kts | 6° |
| 2026-05-07 16:31 | 26.20218 | 127.63526 | 18 ft | 18 kts | 83° |
| 2026-05-07 16:32 | 26.20225 | 127.63705 | 18 ft | 28 kts | 88° |
| 2026-05-07 16:32 | 26.20295 | 127.63900 | 18 ft | 26 kts | 49° |
| 2026-05-07 16:32 | 26.20332 | 127.64121 | 20 ft | 33 kts | 88° |
| 2026-05-07 16:32 | 26.20378 | 127.64303 | 34 ft | 20 kts | 9° |
| 2026-05-07 16:33 | 26.20557 | 127.64314 | 31 ft | 30 kts | 5° |
| 2026-05-07 16:33 | 26.20755 | 127.64359 | 31 ft | 26 kts | 13° |
| 2026-05-07 16:33 | 26.20911 | 127.64444 | 31 ft | 20 kts | 69° |
| 2026-05-07 16:33 | 26.20900 | 127.64555 | 31 ft | 18 kts | 96° |
| 2026-05-07 16:34 | 26.20904 | 127.64674 | 31 ft | 16 kts | 85° |
| 2026-05-07 16:34 | 26.20912 | 127.64794 | 34 ft | 11 kts | 84° |
| 2026-05-07 16:34 | 26.20924 | 127.64844 | 35 ft | 4 kts | 64° |
| 2026-05-07 16:34 | 26.20946 | 127.64903 | 36 ft | 11 kts | 77° |
| 2026-05-07 16:35 | 26.20949 | 127.64935 | 36 ft | 0 kts | 84° |